Aeroporto :
LOGIN :

Iscrizione | Disclaimer

   EN    FR    IT 

 










Sommario :    VFR   VFR Marginale   IFR   IFR Intensivo   IFR Molto Intensivo
Visibilità : 
Base nubi : 
>= 8 km
>= 3000ft
5 / 8 km
1000 / 3000 ft
1500m / 5 km
500 / 1000 ft
800 / 1500m
200 / 500 ft
< 800m
< 200 ft
Simboli :   Temporali  Nebbia  Neve Forte  Precipitazioni Forti  Vento > 20 kt
SIGMETs :   Varie  Temporali  Ghiacco  Turbolenza  Onda orograficha  Ceneri Vulcaniche






- Altitudine del aeroporto : 1504 ft
- Codice IATA : PNA


LEPP - Noain Pamplona

ULTIMO METAR :
  • 170500Z VRB01KT CAVOK 12/10 Q1013

METARs OBSOLETI :
  • 170430Z VRB01KT CAVOK 11/10 Q1013
  • 170400Z VRB02KT CAVOK 12/11 Q1013
  • 170330Z 17003KT CAVOK 12/10 Q1013
  • 170300Z AUTO 17003KT CAVOK 12/11 Q1012
  • 170230Z AUTO 17003KT CAVOK 13/11 Q1013
  • 170200Z AUTO 00000KT CAVOK 14/11 Q1013
  • 170130Z AUTO 00000KT CAVOK 15/11 Q1013
  • 170100Z AUTO 26003KT CAVOK 15/11 Q1013
  • 170030Z AUTO 28002KT CAVOK 15/11 Q1013
  • 170000Z AUTO VRB02KT 9000 NSC 16/11 Q1013

TAF TAF LEPP
Valido dal 17 a 03 ore il 18 a 03 ore UTC


170200Z 1703/1803 VRB03KT CAVOK TX35/1713Z TN11/1706Z
TEMPO 1707/1718 18010KT



MetMap, La meteo Aeronautica in un colpo d'occhio ! - Copyright ORBIFLY Dicembre 2007 - Disclaimer

ORBIFLY MET'MAP TEAM :

Programmazione e sviluppo : Alexandra Zaïnal
Concezione : Baudouin d'Aumeries
Supporto tecnico e logistico : Manuel Goepfert
Aiuto : Marc-Olivier Méhu
Aiuto per la traduzione : Arnaldo La Scala




FONTI E CREDITI :

   NOAA